sensor_id;sensor_type;location;lat;lon;timestamp;temperature;humidity
3564;DHT22;1796;52.388;13.096;2023-12-14T00:01:45;4.10;99.90
3564;DHT22;1796;52.388;13.096;2023-12-14T00:04:14;4.10;99.90
3564;DHT22;1796;52.388;13.096;2023-12-14T00:06:42;4.20;99.90
3564;DHT22;1796;52.388;13.096;2023-12-14T00:09:09;4.20;99.90
3564;DHT22;1796;52.388;13.096;2023-12-14T00:11:37;4.30;99.90
3564;DHT22;1796;52.388;13.096;2023-12-14T00:14:04;4.10;99.90
3564;DHT22;1796;52.388;13.096;2023-12-14T00:16:31;4.10;99.90
3564;DHT22;1796;52.388;13.096;2023-12-14T00:18:58;4.20;99.90
3564;DHT22;1796;52.388;13.096;2023-12-14T00:21:25;4.10;99.90
3564;DHT22;1796;52.388;13.096;2023-12-14T00:23:53;4.10;99.90
3564;DHT22;1796;52.388;13.096;2023-12-14T00:26:20;4.00;99.90
3564;DHT22;1796;52.388;13.096;2023-12-14T00:28:47;4.00;99.90
3564;DHT22;1796;52.388;13.096;2023-12-14T00:31:14;4.00;99.90
3564;DHT22;1796;52.388;13.096;2023-12-14T00:33:41;4.10;99.90
3564;DHT22;1796;52.388;13.096;2023-12-14T00:36:08;4.00;99.90
3564;DHT22;1796;52.388;13.096;2023-12-14T00:38:35;4.00;99.90
3564;DHT22;1796;52.388;13.096;2023-12-14T00:41:03;4.00;99.90
3564;DHT22;1796;52.388;13.096;2023-12-14T00:43:30;4.00;99.90
3564;DHT22;1796;52.388;13.096;2023-12-14T00:45:57;4.00;99.90
3564;DHT22;1796;52.388;13.096;2023-12-14T00:48:24;4.10;99.90
3564;DHT22;1796;52.388;13.096;2023-12-14T00:50:50;3.90;99.90
3564;DHT22;1796;52.388;13.096;2023-12-14T00:53:17;3.90;99.90
3564;DHT22;1796;52.388;13.096;2023-12-14T00:55:45;3.90;99.90
3564;DHT22;1796;52.388;13.096;2023-12-14T00:58:14;3.90;99.90
3564;DHT22;1796;52.388;13.096;2023-12-14T01:00:41;3.90;99.90
3564;DHT22;1796;52.388;13.096;2023-12-14T01:03:08;3.90;99.90
3564;DHT22;1796;52.388;13.096;2023-12-14T01:05:35;3.80;99.90
3564;DHT22;1796;52.388;13.096;2023-12-14T01:08:02;3.80;99.90
3564;DHT22;1796;52.388;13.096;2023-12-14T01:10:29;3.80;99.90
3564;DHT22;1796;52.388;13.096;2023-12-14T01:12:55;3.70;99.90
3564;DHT22;1796;52.388;13.096;2023-12-14T01:15:24;3.80;99.90
3564;DHT22;1796;52.388;13.096;2023-12-14T01:17:50;3.80;99.90
3564;DHT22;1796;52.388;13.096;2023-12-14T01:20:17;3.80;99.90
3564;DHT22;1796;52.388;13.096;2023-12-14T01:22:44;3.80;99.90
3564;DHT22;1796;52.388;13.096;2023-12-14T01:25:11;3.80;99.90
3564;DHT22;1796;52.388;13.096;2023-12-14T01:27:38;3.90;99.90
3564;DHT22;1796;52.388;13.096;2023-12-14T01:30:06;3.80;99.90
3564;DHT22;1796;52.388;13.096;2023-12-14T01:32:34;3.70;99.90
3564;DHT22;1796;52.388;13.096;2023-12-14T01:35:01;3.80;99.90
3564;DHT22;1796;52.388;13.096;2023-12-14T01:37:28;3.70;99.90
3564;DHT22;1796;52.388;13.096;2023-12-14T01:39:55;3.70;99.90
3564;DHT22;1796;52.388;13.096;2023-12-14T01:42:22;3.70;99.90
3564;DHT22;1796;52.388;13.096;2023-12-14T01:44:49;3.70;99.90
3564;DHT22;1796;52.388;13.096;2023-12-14T01:47:16;3.60;99.90
3564;DHT22;1796;52.388;13.096;2023-12-14T01:49:44;3.60;99.90
3564;DHT22;1796;52.388;13.096;2023-12-14T01:52:11;3.60;99.90
3564;DHT22;1796;52.388;13.096;2023-12-14T01:54:38;3.60;99.90
3564;DHT22;1796;52.388;13.096;2023-12-14T01:57:05;3.50;99.90
3564;DHT22;1796;52.388;13.096;2023-12-14T01:59:31;3.60;99.90
3564;DHT22;1796;52.388;13.096;2023-12-14T02:01:58;3.50;99.90
3564;DHT22;1796;52.388;13.096;2023-12-14T02:04:26;3.60;99.90
3564;DHT22;1796;52.388;13.096;2023-12-14T02:06:55;3.50;99.90
3564;DHT22;1796;52.388;13.096;2023-12-14T02:09:22;3.50;99.90
3564;DHT22;1796;52.388;13.096;2023-12-14T02:11:49;3.50;99.90
3564;DHT22;1796;52.388;13.096;2023-12-14T02:14:15;3.50;99.90
3564;DHT22;1796;52.388;13.096;2023-12-14T02:16:42;3.50;99.90
3564;DHT22;1796;52.388;13.096;2023-12-14T02:19:09;3.40;99.90
3564;DHT22;1796;52.388;13.096;2023-12-14T02:21:36;3.40;99.90
3564;DHT22;1796;52.388;13.096;2023-12-14T02:24:04;3.40;99.90
3564;DHT22;1796;52.388;13.096;2023-12-14T02:26:31;3.40;99.90
3564;DHT22;1796;52.388;13.096;2023-12-14T02:28:58;3.40;99.90
3564;DHT22;1796;52.388;13.096;2023-12-14T02:31:25;3.40;99.90
3564;DHT22;1796;52.388;13.096;2023-12-14T02:33:52;3.40;99.90
3564;DHT22;1796;52.388;13.096;2023-12-14T02:36:19;3.50;99.90
3564;DHT22;1796;52.388;13.096;2023-12-14T02:38:46;3.40;99.90
3564;DHT22;1796;52.388;13.096;2023-12-14T02:41:14;3.30;99.90
3564;DHT22;1796;52.388;13.096;2023-12-14T02:43:41;3.20;99.90
3564;DHT22;1796;52.388;13.096;2023-12-14T02:46:08;3.30;99.90
3564;DHT22;1796;52.388;13.096;2023-12-14T02:48:37;3.40;99.90
3564;DHT22;1796;52.388;13.096;2023-12-14T02:51:04;3.30;99.90
3564;DHT22;1796;52.388;13.096;2023-12-14T02:53:31;3.20;99.90
3564;DHT22;1796;52.388;13.096;2023-12-14T02:56:01;3.20;99.90
3564;DHT22;1796;52.388;13.096;2023-12-14T02:58:29;3.20;99.90
3564;DHT22;1796;52.388;13.096;2023-12-14T03:00:56;3.20;99.90
3564;DHT22;1796;52.388;13.096;2023-12-14T03:03:23;3.10;99.90
3564;DHT22;1796;52.388;13.096;2023-12-14T03:05:50;3.10;99.90
3564;DHT22;1796;52.388;13.096;2023-12-14T03:08:17;3.10;99.90
3564;DHT22;1796;52.388;13.096;2023-12-14T03:10:43;3.20;99.90
3564;DHT22;1796;52.388;13.096;2023-12-14T03:13:10;3.20;99.90
3564;DHT22;1796;52.388;13.096;2023-12-14T03:15:38;3.20;99.90
3564;DHT22;1796;52.388;13.096;2023-12-14T03:18:05;3.20;99.90
3564;DHT22;1796;52.388;13.096;2023-12-14T03:20:32;3.10;99.90
3564;DHT22;1796;52.388;13.096;2023-12-14T03:22:59;3.10;99.90
3564;DHT22;1796;52.388;13.096;2023-12-14T03:25:26;3.10;99.90
3564;DHT22;1796;52.388;13.096;2023-12-14T03:27:53;3.00;99.90
3564;DHT22;1796;52.388;13.096;2023-12-14T03:30:20;3.00;99.90
3564;DHT22;1796;52.388;13.096;2023-12-14T03:32:48;3.00;99.90
3564;DHT22;1796;52.388;13.096;2023-12-14T03:35:15;3.10;99.90
3564;DHT22;1796;52.388;13.096;2023-12-14T03:37:41;3.00;99.90
3564;DHT22;1796;52.388;13.096;2023-12-14T03:40:09;3.00;99.90
3564;DHT22;1796;52.388;13.096;2023-12-14T03:42:36;3.00;99.90
3564;DHT22;1796;52.388;13.096;2023-12-14T03:45:03;3.00;99.90
3564;DHT22;1796;52.388;13.096;2023-12-14T03:47:30;3.00;99.90
3564;DHT22;1796;52.388;13.096;2023-12-14T03:49:58;3.00;99.90
3564;DHT22;1796;52.388;13.096;2023-12-14T03:52:25;2.90;99.90
3564;DHT22;1796;52.388;13.096;2023-12-14T03:54:53;2.90;99.90
3564;DHT22;1796;52.388;13.096;2023-12-14T03:57:20;2.90;99.90
3564;DHT22;1796;52.388;13.096;2023-12-14T03:59:47;3.00;99.90
3564;DHT22;1796;52.388;13.096;2023-12-14T04:02:14;3.00;99.90
3564;DHT22;1796;52.388;13.096;2023-12-14T04:04:40;2.90;99.90
3564;DHT22;1796;52.388;13.096;2023-12-14T04:07:09;2.90;99.90
3564;DHT22;1796;52.388;13.096;2023-12-14T04:09:35;2.80;99.90
3564;DHT22;1796;52.388;13.096;2023-12-14T04:12:03;2.90;99.90
3564;DHT22;1796;52.388;13.096;2023-12-14T04:14:30;2.90;99.90
3564;DHT22;1796;52.388;13.096;2023-12-14T04:16:57;3.00;99.90
3564;DHT22;1796;52.388;13.096;2023-12-14T04:19:23;2.90;99.90
3564;DHT22;1796;52.388;13.096;2023-12-14T04:21:51;2.90;99.90
3564;DHT22;1796;52.388;13.096;2023-12-14T04:24:19;2.90;99.90
3564;DHT22;1796;52.388;13.096;2023-12-14T04:26:47;2.90;99.90
3564;DHT22;1796;52.388;13.096;2023-12-14T04:29:14;2.90;99.90
3564;DHT22;1796;52.388;13.096;2023-12-14T04:31:41;2.90;99.90
3564;DHT22;1796;52.388;13.096;2023-12-14T04:34:08;2.90;99.90
3564;DHT22;1796;52.388;13.096;2023-12-14T04:36:39;3.00;99.90
3564;DHT22;1796;52.388;13.096;2023-12-14T04:39:06;3.00;99.90
3564;DHT22;1796;52.388;13.096;2023-12-14T04:41:34;3.00;99.90
3564;DHT22;1796;52.388;13.096;2023-12-14T04:44:01;3.00;99.90
3564;DHT22;1796;52.388;13.096;2023-12-14T04:46:28;3.00;99.90
3564;DHT22;1796;52.388;13.096;2023-12-14T04:48:55;2.90;99.90
3564;DHT22;1796;52.388;13.096;2023-12-14T04:51:22;2.90;99.90
3564;DHT22;1796;52.388;13.096;2023-12-14T04:53:49;2.90;99.90
3564;DHT22;1796;52.388;13.096;2023-12-14T04:56:16;3.00;99.90
3564;DHT22;1796;52.388;13.096;2023-12-14T04:58:44;3.00;99.90
3564;DHT22;1796;52.388;13.096;2023-12-14T05:01:12;3.00;99.90
3564;DHT22;1796;52.388;13.096;2023-12-14T05:03:38;2.90;99.90
3564;DHT22;1796;52.388;13.096;2023-12-14T05:06:05;3.00;99.90
3564;DHT22;1796;52.388;13.096;2023-12-14T05:08:32;3.00;99.90
3564;DHT22;1796;52.388;13.096;2023-12-14T05:10:59;2.90;99.90
3564;DHT22;1796;52.388;13.096;2023-12-14T05:13:26;2.90;99.90
3564;DHT22;1796;52.388;13.096;2023-12-14T05:15:54;2.90;99.90
3564;DHT22;1796;52.388;13.096;2023-12-14T05:18:23;2.90;99.90
3564;DHT22;1796;52.388;13.096;2023-12-14T05:20:50;3.00;99.90
3564;DHT22;1796;52.388;13.096;2023-12-14T05:23:17;2.90;99.90
3564;DHT22;1796;52.388;13.096;2023-12-14T05:25:44;2.90;99.90
3564;DHT22;1796;52.388;13.096;2023-12-14T05:28:11;2.90;99.90
3564;DHT22;1796;52.388;13.096;2023-12-14T05:30:38;2.90;99.90
3564;DHT22;1796;52.388;13.096;2023-12-14T05:33:06;3.00;99.90
3564;DHT22;1796;52.388;13.096;2023-12-14T05:35:33;3.00;99.90
3564;DHT22;1796;52.388;13.096;2023-12-14T05:38:00;3.00;99.90
3564;DHT22;1796;52.388;13.096;2023-12-14T05:40:27;3.00;99.90
3564;DHT22;1796;52.388;13.096;2023-12-14T05:42:54;3.00;99.90
3564;DHT22;1796;52.388;13.096;2023-12-14T05:45:21;2.90;99.90
3564;DHT22;1796;52.388;13.096;2023-12-14T05:47:48;3.00;99.90
3564;DHT22;1796;52.388;13.096;2023-12-14T05:50:18;3.00;99.90
3564;DHT22;1796;52.388;13.096;2023-12-14T05:52:44;3.00;99.90
3564;DHT22;1796;52.388;13.096;2023-12-14T05:55:11;3.00;99.90
3564;DHT22;1796;52.388;13.096;2023-12-14T05:57:38;2.90;99.90
3564;DHT22;1796;52.388;13.096;2023-12-14T06:00:06;2.90;99.90
3564;DHT22;1796;52.388;13.096;2023-12-14T06:02:34;2.90;99.90
3564;DHT22;1796;52.388;13.096;2023-12-14T06:05:02;2.90;99.90
3564;DHT22;1796;52.388;13.096;2023-12-14T06:07:31;2.90;99.90
3564;DHT22;1796;52.388;13.096;2023-12-14T06:09:58;2.90;99.90
3564;DHT22;1796;52.388;13.096;2023-12-14T06:12:26;2.90;99.90
3564;DHT22;1796;52.388;13.096;2023-12-14T06:14:53;2.90;99.90
3564;DHT22;1796;52.388;13.096;2023-12-14T06:17:20;2.90;99.90
3564;DHT22;1796;52.388;13.096;2023-12-14T06:19:47;2.90;99.90
3564;DHT22;1796;52.388;13.096;2023-12-14T06:22:14;3.10;99.90
3564;DHT22;1796;52.388;13.096;2023-12-14T06:24:43;3.00;99.90
3564;DHT22;1796;52.388;13.096;2023-12-14T06:27:09;3.00;99.90
3564;DHT22;1796;52.388;13.096;2023-12-14T06:29:36;3.00;99.90
3564;DHT22;1796;52.388;13.096;2023-12-14T06:32:04;3.00;99.90
3564;DHT22;1796;52.388;13.096;2023-12-14T06:34:30;3.00;99.90
3564;DHT22;1796;52.388;13.096;2023-12-14T06:36:57;3.00;99.90
3564;DHT22;1796;52.388;13.096;2023-12-14T06:39:25;3.00;99.90
3564;DHT22;1796;52.388;13.096;2023-12-14T06:41:54;3.00;99.90
3564;DHT22;1796;52.388;13.096;2023-12-14T06:44:20;3.00;99.90
3564;DHT22;1796;52.388;13.096;2023-12-14T06:46:47;3.00;99.90
3564;DHT22;1796;52.388;13.096;2023-12-14T06:49:14;3.10;99.90
3564;DHT22;1796;52.388;13.096;2023-12-14T06:51:41;3.00;99.90
3564;DHT22;1796;52.388;13.096;2023-12-14T06:54:08;3.00;99.90
3564;DHT22;1796;52.388;13.096;2023-12-14T06:56:36;3.00;99.90
3564;DHT22;1796;52.388;13.096;2023-12-14T06:59:04;3.10;99.90
3564;DHT22;1796;52.388;13.096;2023-12-14T07:01:31;3.10;99.90
3564;DHT22;1796;52.388;13.096;2023-12-14T07:03:58;3.10;99.90
3564;DHT22;1796;52.388;13.096;2023-12-14T07:06:25;3.10;99.90
3564;DHT22;1796;52.388;13.096;2023-12-14T07:08:51;3.10;99.90
3564;DHT22;1796;52.388;13.096;2023-12-14T07:11:18;3.10;99.90
3564;DHT22;1796;52.388;13.096;2023-12-14T07:13:45;3.10;99.90
3564;DHT22;1796;52.388;13.096;2023-12-14T07:16:14;3.10;99.90
3564;DHT22;1796;52.388;13.096;2023-12-14T07:18:43;3.10;99.90
3564;DHT22;1796;52.388;13.096;2023-12-14T07:21:10;3.10;99.90
3564;DHT22;1796;52.388;13.096;2023-12-14T07:23:37;3.10;99.90
3564;DHT22;1796;52.388;13.096;2023-12-14T07:26:04;3.10;99.90
3564;DHT22;1796;52.388;13.096;2023-12-14T07:28:31;3.20;99.90
3564;DHT22;1796;52.388;13.096;2023-12-14T07:30:58;3.20;99.90
3564;DHT22;1796;52.388;13.096;2023-12-14T07:33:26;3.10;99.90
3564;DHT22;1796;52.388;13.096;2023-12-14T07:35:52;3.10;99.90
3564;DHT22;1796;52.388;13.096;2023-12-14T07:38:20;3.10;99.90
3564;DHT22;1796;52.388;13.096;2023-12-14T07:40:46;3.20;99.90
3564;DHT22;1796;52.388;13.096;2023-12-14T07:43:15;3.20;99.90
3564;DHT22;1796;52.388;13.096;2023-12-14T07:45:42;3.10;99.90
3564;DHT22;1796;52.388;13.096;2023-12-14T07:48:09;3.10;99.90
3564;DHT22;1796;52.388;13.096;2023-12-14T07:50:38;3.20;99.90
3564;DHT22;1796;52.388;13.096;2023-12-14T07:53:04;3.20;99.90
3564;DHT22;1796;52.388;13.096;2023-12-14T07:55:31;3.10;99.90
3564;DHT22;1796;52.388;13.096;2023-12-14T07:57:58;3.10;99.90
3564;DHT22;1796;52.388;13.096;2023-12-14T08:00:25;3.20;99.90
3564;DHT22;1796;52.388;13.096;2023-12-14T08:02:52;3.20;99.90
3564;DHT22;1796;52.388;13.096;2023-12-14T08:05:19;3.20;99.90
3564;DHT22;1796;52.388;13.096;2023-12-14T08:07:47;3.20;99.90
3564;DHT22;1796;52.388;13.096;2023-12-14T08:10:17;3.10;99.90
3564;DHT22;1796;52.388;13.096;2023-12-14T08:12:44;3.10;99.90
3564;DHT22;1796;52.388;13.096;2023-12-14T08:15:12;3.10;99.90
3564;DHT22;1796;52.388;13.096;2023-12-14T08:17:39;3.10;99.90
3564;DHT22;1796;52.388;13.096;2023-12-14T08:20:07;3.10;99.90
3564;DHT22;1796;52.388;13.096;2023-12-14T08:22:37;3.10;99.90
3564;DHT22;1796;52.388;13.096;2023-12-14T08:25:11;3.20;99.90
3564;DHT22;1796;52.388;13.096;2023-12-14T08:27:38;3.20;99.90
3564;DHT22;1796;52.388;13.096;2023-12-14T08:30:06;3.20;99.90
3564;DHT22;1796;52.388;13.096;2023-12-14T08:32:34;3.20;99.90
3564;DHT22;1796;52.388;13.096;2023-12-14T08:35:00;3.20;99.90
3564;DHT22;1796;52.388;13.096;2023-12-14T08:37:27;3.20;99.90
3564;DHT22;1796;52.388;13.096;2023-12-14T08:39:54;3.20;99.90
3564;DHT22;1796;52.388;13.096;2023-12-14T08:42:22;3.20;99.90
3564;DHT22;1796;52.388;13.096;2023-12-14T08:44:49;3.30;99.90
3564;DHT22;1796;52.388;13.096;2023-12-14T08:47:16;3.20;99.90
3564;DHT22;1796;52.388;13.096;2023-12-14T08:49:43;3.10;99.90
3564;DHT22;1796;52.388;13.096;2023-12-14T08:52:11;3.20;99.90
3564;DHT22;1796;52.388;13.096;2023-12-14T08:54:40;3.20;99.90
3564;DHT22;1796;52.388;13.096;2023-12-14T08:57:09;3.20;99.90
3564;DHT22;1796;52.388;13.096;2023-12-14T08:59:37;3.30;99.90
3564;DHT22;1796;52.388;13.096;2023-12-14T09:02:05;3.30;99.90
3564;DHT22;1796;52.388;13.096;2023-12-14T09:04:32;3.20;99.90
3564;DHT22;1796;52.388;13.096;2023-12-14T09:07:01;3.20;99.90
3564;DHT22;1796;52.388;13.096;2023-12-14T09:09:30;3.30;99.90
3564;DHT22;1796;52.388;13.096;2023-12-14T09:11:58;3.40;99.90
3564;DHT22;1796;52.388;13.096;2023-12-14T09:14:25;3.20;99.90
3564;DHT22;1796;52.388;13.096;2023-12-14T09:16:53;3.30;99.90
3564;DHT22;1796;52.388;13.096;2023-12-14T09:19:20;3.30;99.90
3564;DHT22;1796;52.388;13.096;2023-12-14T09:21:47;3.30;99.90
3564;DHT22;1796;52.388;13.096;2023-12-14T09:24:14;3.30;99.90
3564;DHT22;1796;52.388;13.096;2023-12-14T09:26:41;3.20;99.90
3564;DHT22;1796;52.388;13.096;2023-12-14T09:29:08;3.30;99.90
3564;DHT22;1796;52.388;13.096;2023-12-14T09:31:35;3.30;99.90
3564;DHT22;1796;52.388;13.096;2023-12-14T09:34:03;3.40;99.90
3564;DHT22;1796;52.388;13.096;2023-12-14T09:36:30;3.30;99.90
3564;DHT22;1796;52.388;13.096;2023-12-14T09:38:57;3.30;99.90
3564;DHT22;1796;52.388;13.096;2023-12-14T09:41:24;3.30;99.90
3564;DHT22;1796;52.388;13.096;2023-12-14T09:43:52;3.30;99.90
3564;DHT22;1796;52.388;13.096;2023-12-14T09:46:18;3.30;99.90
3564;DHT22;1796;52.388;13.096;2023-12-14T09:48:47;3.30;99.90
3564;DHT22;1796;52.388;13.096;2023-12-14T09:51:17;3.40;99.90
3564;DHT22;1796;52.388;13.096;2023-12-14T09:53:45;3.40;99.90
3564;DHT22;1796;52.388;13.096;2023-12-14T09:56:11;3.40;99.90
3564;DHT22;1796;52.388;13.096;2023-12-14T09:58:38;3.30;99.90
3564;DHT22;1796;52.388;13.096;2023-12-14T10:01:23;3.40;99.90
3564;DHT22;1796;52.388;13.096;2023-12-14T10:03:50;3.40;99.90
3564;DHT22;1796;52.388;13.096;2023-12-14T10:06:34;3.40;99.90
3564;DHT22;1796;52.388;13.096;2023-12-14T10:09:01;3.40;99.90
3564;DHT22;1796;52.388;13.096;2023-12-14T10:11:29;3.50;99.90
3564;DHT22;1796;52.388;13.096;2023-12-14T10:13:55;3.50;99.90
3564;DHT22;1796;52.388;13.096;2023-12-14T10:16:29;3.50;99.90
3564;DHT22;1796;52.388;13.096;2023-12-14T10:18:57;3.50;99.90
3564;DHT22;1796;52.388;13.096;2023-12-14T10:21:24;3.50;99.90
3564;DHT22;1796;52.388;13.096;2023-12-14T10:23:54;3.50;99.90
3564;DHT22;1796;52.388;13.096;2023-12-14T10:26:22;3.60;99.90
3564;DHT22;1796;52.388;13.096;2023-12-14T10:28:50;3.60;99.90
3564;DHT22;1796;52.388;13.096;2023-12-14T10:31:17;3.70;99.90
3564;DHT22;1796;52.388;13.096;2023-12-14T10:33:45;3.70;99.90
3564;DHT22;1796;52.388;13.096;2023-12-14T10:36:13;3.50;99.90
3564;DHT22;1796;52.388;13.096;2023-12-14T10:38:40;3.50;99.90
3564;DHT22;1796;52.388;13.096;2023-12-14T10:41:12;3.50;99.90
3564;DHT22;1796;52.388;13.096;2023-12-14T10:43:41;3.50;99.90
3564;DHT22;1796;52.388;13.096;2023-12-14T10:46:10;3.50;99.90
3564;DHT22;1796;52.388;13.096;2023-12-14T10:48:36;3.60;99.90
3564;DHT22;1796;52.388;13.096;2023-12-14T10:51:05;3.50;99.90
3564;DHT22;1796;52.388;13.096;2023-12-14T10:53:34;3.40;99.90
3564;DHT22;1796;52.388;13.096;2023-12-14T10:56:03;3.40;99.90
3564;DHT22;1796;52.388;13.096;2023-12-14T10:58:46;3.40;99.90
3564;DHT22;1796;52.388;13.096;2023-12-14T11:01:14;3.50;99.90
3564;DHT22;1796;52.388;13.096;2023-12-14T11:03:42;3.50;99.90
3564;DHT22;1796;52.388;13.096;2023-12-14T11:06:31;3.60;99.90
3564;DHT22;1796;52.388;13.096;2023-12-14T11:09:00;3.60;99.90
3564;DHT22;1796;52.388;13.096;2023-12-14T11:11:39;3.50;99.90
3564;DHT22;1796;52.388;13.096;2023-12-14T11:14:10;3.50;99.90
3564;DHT22;1796;52.388;13.096;2023-12-14T11:16:38;3.50;99.90
3564;DHT22;1796;52.388;13.096;2023-12-14T11:19:29;3.50;99.90
3564;DHT22;1796;52.388;13.096;2023-12-14T11:22:12;3.60;99.90
3564;DHT22;1796;52.388;13.096;2023-12-14T11:24:51;3.50;99.90
3564;DHT22;1796;52.388;13.096;2023-12-14T11:27:22;3.40;99.90
3564;DHT22;1796;52.388;13.096;2023-12-14T11:29:53;3.50;99.90
3564;DHT22;1796;52.388;13.096;2023-12-14T11:32:20;3.50;99.90
3564;DHT22;1796;52.388;13.096;2023-12-14T11:34:47;3.70;99.90
3564;DHT22;1796;52.388;13.096;2023-12-14T11:37:23;3.60;99.90
3564;DHT22;1796;52.388;13.096;2023-12-14T11:40:01;3.60;99.90
3564;DHT22;1796;52.388;13.096;2023-12-14T11:42:30;3.60;99.90
3564;DHT22;1796;52.388;13.096;2023-12-14T11:44:59;3.60;99.90
3564;DHT22;1796;52.388;13.096;2023-12-14T11:47:26;3.70;99.90
3564;DHT22;1796;52.388;13.096;2023-12-14T11:49:53;3.60;99.90
3564;DHT22;1796;52.388;13.096;2023-12-14T11:52:21;3.50;99.90
3564;DHT22;1796;52.388;13.096;2023-12-14T11:54:48;3.50;99.90
3564;DHT22;1796;52.388;13.096;2023-12-14T11:57:16;3.60;99.90
3564;DHT22;1796;52.388;13.096;2023-12-14T11:59:45;3.70;99.90
3564;DHT22;1796;52.388;13.096;2023-12-14T12:02:23;3.70;99.90
3564;DHT22;1796;52.388;13.096;2023-12-14T12:04:51;3.70;99.90
3564;DHT22;1796;52.388;13.096;2023-12-14T12:07:18;3.60;99.90
3564;DHT22;1796;52.388;13.096;2023-12-14T12:09:47;3.60;99.90
3564;DHT22;1796;52.388;13.096;2023-12-14T12:12:14;3.70;99.90
3564;DHT22;1796;52.388;13.096;2023-12-14T12:14:41;3.70;99.90
3564;DHT22;1796;52.388;13.096;2023-12-14T12:17:08;3.80;99.90
3564;DHT22;1796;52.388;13.096;2023-12-14T12:19:37;3.80;99.90
3564;DHT22;1796;52.388;13.096;2023-12-14T12:22:04;3.90;99.90
3564;DHT22;1796;52.388;13.096;2023-12-14T12:24:31;3.80;99.90
3564;DHT22;1796;52.388;13.096;2023-12-14T12:26:58;3.70;99.90
3564;DHT22;1796;52.388;13.096;2023-12-14T12:29:25;3.70;99.90
3564;DHT22;1796;52.388;13.096;2023-12-14T12:31:52;3.70;99.90
3564;DHT22;1796;52.388;13.096;2023-12-14T12:34:18;3.70;99.90
3564;DHT22;1796;52.388;13.096;2023-12-14T12:36:47;3.80;99.90
3564;DHT22;1796;52.388;13.096;2023-12-14T12:39:13;3.80;99.90
3564;DHT22;1796;52.388;13.096;2023-12-14T12:41:41;3.80;99.90
3564;DHT22;1796;52.388;13.096;2023-12-14T12:44:08;3.80;99.90
3564;DHT22;1796;52.388;13.096;2023-12-14T12:46:35;3.80;99.90
3564;DHT22;1796;52.388;13.096;2023-12-14T12:49:03;3.80;99.90
3564;DHT22;1796;52.388;13.096;2023-12-14T12:51:31;3.80;99.90
3564;DHT22;1796;52.388;13.096;2023-12-14T12:54:00;3.80;99.90
3564;DHT22;1796;52.388;13.096;2023-12-14T12:56:27;3.70;99.90
3564;DHT22;1796;52.388;13.096;2023-12-14T12:58:54;3.70;99.90
3564;DHT22;1796;52.388;13.096;2023-12-14T13:01:21;3.70;99.90
3564;DHT22;1796;52.388;13.096;2023-12-14T13:03:53;3.80;99.90
3564;DHT22;1796;52.388;13.096;2023-12-14T13:06:20;3.80;99.90
3564;DHT22;1796;52.388;13.096;2023-12-14T13:08:47;3.80;99.90
3564;DHT22;1796;52.388;13.096;2023-12-14T13:11:15;3.80;99.90
3564;DHT22;1796;52.388;13.096;2023-12-14T13:13:42;3.70;99.90
3564;DHT22;1796;52.388;13.096;2023-12-14T13:16:09;3.60;99.90
3564;DHT22;1796;52.388;13.096;2023-12-14T13:18:38;3.70;99.90
3564;DHT22;1796;52.388;13.096;2023-12-14T13:21:05;3.80;99.90
3564;DHT22;1796;52.388;13.096;2023-12-14T13:23:32;3.70;99.90
3564;DHT22;1796;52.388;13.096;2023-12-14T13:25:59;3.80;99.90
3564;DHT22;1796;52.388;13.096;2023-12-14T13:28:27;3.70;99.90
3564;DHT22;1796;52.388;13.096;2023-12-14T13:30:55;3.80;99.90
3564;DHT22;1796;52.388;13.096;2023-12-14T13:33:21;3.70;99.90
3564;DHT22;1796;52.388;13.096;2023-12-14T13:35:48;3.70;99.90
3564;DHT22;1796;52.388;13.096;2023-12-14T13:38:15;3.70;99.90
3564;DHT22;1796;52.388;13.096;2023-12-14T13:40:43;3.70;99.90
3564;DHT22;1796;52.388;13.096;2023-12-14T13:43:10;3.70;99.90
3564;DHT22;1796;52.388;13.096;2023-12-14T13:45:39;3.70;99.90
3564;DHT22;1796;52.388;13.096;2023-12-14T13:48:07;3.70;99.90
3564;DHT22;1796;52.388;13.096;2023-12-14T13:50:35;3.60;99.90
3564;DHT22;1796;52.388;13.096;2023-12-14T13:53:02;3.70;99.90
3564;DHT22;1796;52.388;13.096;2023-12-14T13:55:30;3.70;99.90
3564;DHT22;1796;52.388;13.096;2023-12-14T13:57:57;3.70;99.90
3564;DHT22;1796;52.388;13.096;2023-12-14T14:00:26;3.60;99.90
3564;DHT22;1796;52.388;13.096;2023-12-14T14:02:54;3.60;99.90
3564;DHT22;1796;52.388;13.096;2023-12-14T14:05:24;3.70;99.90
3564;DHT22;1796;52.388;13.096;2023-12-14T14:07:51;3.80;99.90
3564;DHT22;1796;52.388;13.096;2023-12-14T14:10:18;3.70;99.90
3564;DHT22;1796;52.388;13.096;2023-12-14T14:12:45;3.80;99.90
3564;DHT22;1796;52.388;13.096;2023-12-14T14:15:13;3.60;99.90
3564;DHT22;1796;52.388;13.096;2023-12-14T14:17:40;3.60;99.90
3564;DHT22;1796;52.388;13.096;2023-12-14T14:20:11;3.70;99.90
3564;DHT22;1796;52.388;13.096;2023-12-14T14:22:41;3.60;99.90
3564;DHT22;1796;52.388;13.096;2023-12-14T14:25:08;3.60;99.90
3564;DHT22;1796;52.388;13.096;2023-12-14T14:27:36;3.60;99.90
3564;DHT22;1796;52.388;13.096;2023-12-14T14:30:04;3.50;99.90
3564;DHT22;1796;52.388;13.096;2023-12-14T14:32:31;3.60;99.90
3564;DHT22;1796;52.388;13.096;2023-12-14T14:35:00;3.70;99.90
3564;DHT22;1796;52.388;13.096;2023-12-14T14:37:29;3.50;99.90
3564;DHT22;1796;52.388;13.096;2023-12-14T14:39:56;3.50;99.90
3564;DHT22;1796;52.388;13.096;2023-12-14T14:42:23;3.50;99.90
3564;DHT22;1796;52.388;13.096;2023-12-14T14:44:52;3.40;99.90
3564;DHT22;1796;52.388;13.096;2023-12-14T14:47:18;3.40;99.90
3564;DHT22;1796;52.388;13.096;2023-12-14T14:49:45;3.50;99.90
3564;DHT22;1796;52.388;13.096;2023-12-14T14:52:12;3.50;99.90
3564;DHT22;1796;52.388;13.096;2023-12-14T14:54:43;3.40;99.90
3564;DHT22;1796;52.388;13.096;2023-12-14T14:57:11;3.50;99.90
3564;DHT22;1796;52.388;13.096;2023-12-14T14:59:38;3.40;99.90
3564;DHT22;1796;52.388;13.096;2023-12-14T15:02:05;3.60;99.90
3564;DHT22;1796;52.388;13.096;2023-12-14T15:04:31;3.50;99.90
3564;DHT22;1796;52.388;13.096;2023-12-14T15:06:59;3.40;99.90
3564;DHT22;1796;52.388;13.096;2023-12-14T15:09:25;3.40;99.90
3564;DHT22;1796;52.388;13.096;2023-12-14T15:11:54;3.40;99.90
3564;DHT22;1796;52.388;13.096;2023-12-14T15:14:20;3.40;99.90
3564;DHT22;1796;52.388;13.096;2023-12-14T15:16:47;3.40;99.90
3564;DHT22;1796;52.388;13.096;2023-12-14T15:19:14;3.30;99.90
3564;DHT22;1796;52.388;13.096;2023-12-14T15:21:41;3.30;99.90
3564;DHT22;1796;52.388;13.096;2023-12-14T15:24:08;3.40;99.90
3564;DHT22;1796;52.388;13.096;2023-12-14T15:26:35;3.40;99.90
3564;DHT22;1796;52.388;13.096;2023-12-14T15:29:03;3.50;99.90
3564;DHT22;1796;52.388;13.096;2023-12-14T15:31:30;3.40;99.90
3564;DHT22;1796;52.388;13.096;2023-12-14T15:33:58;3.40;99.90
3564;DHT22;1796;52.388;13.096;2023-12-14T15:36:26;3.40;99.90
3564;DHT22;1796;52.388;13.096;2023-12-14T15:38:55;3.40;99.90
3564;DHT22;1796;52.388;13.096;2023-12-14T15:41:22;3.40;99.90
3564;DHT22;1796;52.388;13.096;2023-12-14T15:43:49;3.50;99.90
3564;DHT22;1796;52.388;13.096;2023-12-14T15:46:17;3.40;99.90
3564;DHT22;1796;52.388;13.096;2023-12-14T15:48:44;3.40;99.90
3564;DHT22;1796;52.388;13.096;2023-12-14T15:51:12;3.30;99.90
3564;DHT22;1796;52.388;13.096;2023-12-14T15:53:39;3.40;99.90
3564;DHT22;1796;52.388;13.096;2023-12-14T15:56:06;3.40;99.90
3564;DHT22;1796;52.388;13.096;2023-12-14T15:58:33;3.40;99.90
3564;DHT22;1796;52.388;13.096;2023-12-14T16:01:00;3.40;99.90
3564;DHT22;1796;52.388;13.096;2023-12-14T16:03:28;3.40;99.90
3564;DHT22;1796;52.388;13.096;2023-12-14T16:05:56;3.40;99.90